sensor_id;sensor_type;location;lat;lon;timestamp;pressure;altitude;pressure_sealevel;temperature;humidity
60817;BME280;51921;51.518;-3.188;2023-05-12T00:01:31;101631.40;;;10.14;100.00
60817;BME280;51921;51.518;-3.188;2023-05-12T00:03:56;101634.71;;;6.78;100.00
60817;BME280;51921;51.518;-3.188;2023-05-12T00:06:22;101633.75;;;6.94;100.00
60817;BME280;51921;51.518;-3.188;2023-05-12T00:08:47;101634.50;;;6.44;100.00
60817;BME280;51921;51.518;-3.188;2023-05-12T00:11:13;101633.73;;;6.65;100.00
60817;BME280;51921;51.518;-3.188;2023-05-12T00:13:39;101638.00;;;6.52;100.00
60817;BME280;51921;51.518;-3.188;2023-05-12T00:16:05;101641.57;;;6.45;100.00
60817;BME280;51921;51.518;-3.188;2023-05-12T00:18:29;101643.78;;;6.23;100.00
60817;BME280;51921;51.518;-3.188;2023-05-12T00:20:55;101651.56;;;6.37;100.00
60817;BME280;51921;51.518;-3.188;2023-05-12T00:23:21;101657.84;;;6.53;100.00
60817;BME280;51921;51.518;-3.188;2023-05-12T00:25:46;101662.37;;;6.39;100.00
60817;BME280;51921;51.518;-3.188;2023-05-12T00:28:12;101661.63;;;6.31;100.00
60817;BME280;51921;51.518;-3.188;2023-05-12T00:30:37;101666.73;;;6.74;100.00
60817;BME280;51921;51.518;-3.188;2023-05-12T00:33:04;101666.02;;;6.85;100.00
60817;BME280;51921;51.518;-3.188;2023-05-12T00:35:28;101670.73;;;6.85;100.00
60817;BME280;51921;51.518;-3.188;2023-05-12T00:37:54;101673.56;;;6.52;100.00
60817;BME280;51921;51.518;-3.188;2023-05-12T00:40:19;101669.35;;;7.11;100.00
60817;BME280;51921;51.518;-3.188;2023-05-12T00:42:45;101670.67;;;5.99;100.00
60817;BME280;51921;51.518;-3.188;2023-05-12T00:45:11;101675.17;;;6.00;100.00
60817;BME280;51921;51.518;-3.188;2023-05-12T00:47:36;101675.09;;;5.94;100.00
60817;BME280;51921;51.518;-3.188;2023-05-12T00:50:03;101673.68;;;6.76;100.00
60817;BME280;51921;51.518;-3.188;2023-05-12T00:52:28;101679.04;;;6.22;100.00
60817;BME280;51921;51.518;-3.188;2023-05-12T00:54:52;101683.38;;;6.32;100.00
60817;BME280;51921;51.518;-3.188;2023-05-12T00:57:19;101682.04;;;6.72;100.00
60817;BME280;51921;51.518;-3.188;2023-05-12T00:59:43;101681.84;;;6.46;100.00
60817;BME280;51921;51.518;-3.188;2023-05-12T01:02:09;101682.75;;;6.01;100.00
60817;BME280;51921;51.518;-3.188;2023-05-12T01:04:36;101683.65;;;5.99;100.00
60817;BME280;51921;51.518;-3.188;2023-05-12T01:07:05;101684.24;;;6.24;100.00
60817;BME280;51921;51.518;-3.188;2023-05-12T01:09:25;101687.35;;;6.57;100.00
60817;BME280;51921;51.518;-3.188;2023-05-12T01:11:51;101691.44;;;6.51;100.00
60817;BME280;51921;51.518;-3.188;2023-05-12T01:14:16;101688.78;;;5.99;100.00
60817;BME280;51921;51.518;-3.188;2023-05-12T01:16:47;101690.80;;;6.89;100.00
60817;BME280;51921;51.518;-3.188;2023-05-12T01:19:14;101691.74;;;7.63;100.00
60817;BME280;51921;51.518;-3.188;2023-05-12T01:21:33;101695.54;;;7.70;100.00
60817;BME280;51921;51.518;-3.188;2023-05-12T01:24:01;101693.53;;;8.97;100.00
60817;BME280;51921;51.518;-3.188;2023-05-12T01:26:24;101691.47;;;9.87;100.00
60817;BME280;51921;51.518;-3.188;2023-05-12T01:28:50;101697.36;;;8.09;100.00
60817;BME280;51921;51.518;-3.188;2023-05-12T01:31:15;101701.85;;;6.84;100.00
60817;BME280;51921;51.518;-3.188;2023-05-12T01:33:41;101700.53;;;7.62;100.00
60817;BME280;51921;51.518;-3.188;2023-05-12T01:36:06;101700.79;;;7.85;100.00
60817;BME280;51921;51.518;-3.188;2023-05-12T01:38:31;101702.64;;;7.60;100.00
60817;BME280;51921;51.518;-3.188;2023-05-12T01:40:57;101704.60;;;8.00;100.00
60817;BME280;51921;51.518;-3.188;2023-05-12T01:43:22;101701.77;;;8.09;100.00
60817;BME280;51921;51.518;-3.188;2023-05-12T01:45:48;101704.90;;;7.10;100.00
60817;BME280;51921;51.518;-3.188;2023-05-12T01:48:13;101712.66;;;6.75;100.00
60817;BME280;51921;51.518;-3.188;2023-05-12T01:50:39;101718.31;;;6.66;100.00
60817;BME280;51921;51.518;-3.188;2023-05-12T01:53:04;101722.35;;;6.11;100.00
60817;BME280;51921;51.518;-3.188;2023-05-12T01:55:30;101724.36;;;6.01;100.00
60817;BME280;51921;51.518;-3.188;2023-05-12T01:57:56;101727.82;;;6.37;100.00
60817;BME280;51921;51.518;-3.188;2023-05-12T02:00:21;101729.24;;;6.47;100.00
60817;BME280;51921;51.518;-3.188;2023-05-12T02:02:47;101730.71;;;6.52;100.00
60817;BME280;51921;51.518;-3.188;2023-05-12T02:05:12;101736.59;;;6.17;100.00
60817;BME280;51921;51.518;-3.188;2023-05-12T02:07:38;101738.39;;;6.96;100.00
60817;BME280;51921;51.518;-3.188;2023-05-12T02:10:04;101738.80;;;6.81;100.00
60817;BME280;51921;51.518;-3.188;2023-05-12T02:12:28;101740.84;;;6.49;100.00
60817;BME280;51921;51.518;-3.188;2023-05-12T02:14:54;101742.55;;;6.43;100.00
60817;BME280;51921;51.518;-3.188;2023-05-12T02:17:19;101744.09;;;6.57;100.00
60817;BME280;51921;51.518;-3.188;2023-05-12T02:19:45;101747.25;;;6.16;100.00
60817;BME280;51921;51.518;-3.188;2023-05-12T02:22:11;101747.13;;;5.99;100.00
60817;BME280;51921;51.518;-3.188;2023-05-12T02:24:36;101746.99;;;6.33;100.00
60817;BME280;51921;51.518;-3.188;2023-05-12T02:27:02;101753.96;;;6.26;100.00
60817;BME280;51921;51.518;-3.188;2023-05-12T02:29:27;101755.40;;;6.50;100.00
60817;BME280;51921;51.518;-3.188;2023-05-12T02:31:53;101761.73;;;6.25;100.00
60817;BME280;51921;51.518;-3.188;2023-05-12T02:34:18;101764.22;;;6.81;100.00
60817;BME280;51921;51.518;-3.188;2023-05-12T02:36:44;101762.14;;;7.37;100.00
60817;BME280;51921;51.518;-3.188;2023-05-12T02:39:09;101758.57;;;8.06;100.00
60817;BME280;51921;51.518;-3.188;2023-05-12T02:41:35;101763.46;;;8.87;100.00
60817;BME280;51921;51.518;-3.188;2023-05-12T02:44:00;101764.19;;;8.51;100.00
60817;BME280;51921;51.518;-3.188;2023-05-12T02:46:26;101760.10;;;10.09;100.00
60817;BME280;51921;51.518;-3.188;2023-05-12T02:48:51;101765.76;;;8.39;100.00
60817;BME280;51921;51.518;-3.188;2023-05-12T02:51:17;101769.48;;;6.81;100.00
60817;BME280;51921;51.518;-3.188;2023-05-12T02:53:42;101770.01;;;7.82;100.00
60817;BME280;51921;51.518;-3.188;2023-05-12T02:56:08;101774.30;;;6.69;100.00
60817;BME280;51921;51.518;-3.188;2023-05-12T02:58:33;101770.84;;;6.51;100.00
60817;BME280;51921;51.518;-3.188;2023-05-12T03:00:59;101776.53;;;7.04;100.00
60817;BME280;51921;51.518;-3.188;2023-05-12T03:03:24;101779.00;;;7.62;100.00
60817;BME280;51921;51.518;-3.188;2023-05-12T03:05:50;101776.93;;;7.69;100.00
60817;BME280;51921;51.518;-3.188;2023-05-12T03:08:15;101779.88;;;9.66;100.00
60817;BME280;51921;51.518;-3.188;2023-05-12T03:10:41;101783.00;;;9.71;100.00
60817;BME280;51921;51.518;-3.188;2023-05-12T03:13:06;101782.93;;;9.91;100.00
60817;BME280;51921;51.518;-3.188;2023-05-12T03:15:32;101784.44;;;10.51;100.00
60817;BME280;51921;51.518;-3.188;2023-05-12T03:17:57;101789.82;;;11.57;100.00
60817;BME280;51921;51.518;-3.188;2023-05-12T03:20:23;101790.47;;;11.33;100.00
60817;BME280;51921;51.518;-3.188;2023-05-12T03:22:48;101788.84;;;11.35;100.00
60817;BME280;51921;51.518;-3.188;2023-05-12T03:25:14;101783.87;;;10.62;100.00
60817;BME280;51921;51.518;-3.188;2023-05-12T03:27:40;101789.50;;;11.07;100.00
60817;BME280;51921;51.518;-3.188;2023-05-12T03:30:06;101788.10;;;10.72;100.00
60817;BME280;51921;51.518;-3.188;2023-05-12T03:32:30;101789.27;;;8.87;100.00
60817;BME280;51921;51.518;-3.188;2023-05-12T03:34:56;101788.10;;;9.50;100.00
60817;BME280;51921;51.518;-3.188;2023-05-12T03:37:21;101787.32;;;10.20;100.00
60817;BME280;51921;51.518;-3.188;2023-05-12T03:39:47;101797.13;;;7.36;100.00
60817;BME280;51921;51.518;-3.188;2023-05-12T03:42:13;101796.85;;;6.93;100.00
60817;BME280;51921;51.518;-3.188;2023-05-12T03:44:38;101799.50;;;6.01;100.00
60817;BME280;51921;51.518;-3.188;2023-05-12T03:47:04;101801.53;;;6.00;100.00
60817;BME280;51921;51.518;-3.188;2023-05-12T03:49:29;101807.49;;;6.19;100.00
60817;BME280;51921;51.518;-3.188;2023-05-12T03:51:54;101810.81;;;7.73;100.00
60817;BME280;51921;51.518;-3.188;2023-05-12T03:54:20;101809.51;;;8.11;100.00
60817;BME280;51921;51.518;-3.188;2023-05-12T03:56:45;101815.82;;;6.63;100.00
60817;BME280;51921;51.518;-3.188;2023-05-12T03:59:11;101821.21;;;7.06;100.00
60817;BME280;51921;51.518;-3.188;2023-05-12T04:01:36;101819.48;;;6.31;100.00
60817;BME280;51921;51.518;-3.188;2023-05-12T04:04:01;101816.78;;;6.29;100.00
60817;BME280;51921;51.518;-3.188;2023-05-12T04:06:26;101819.04;;;6.22;100.00
60817;BME280;51921;51.518;-3.188;2023-05-12T04:08:52;101823.38;;;6.27;100.00
60817;BME280;51921;51.518;-3.188;2023-05-12T04:11:17;101824.89;;;6.30;100.00
60817;BME280;51921;51.518;-3.188;2023-05-12T04:13:43;101830.48;;;6.12;100.00
60817;BME280;51921;51.518;-3.188;2023-05-12T04:16:08;101835.23;;;6.09;100.00
60817;BME280;51921;51.518;-3.188;2023-05-12T04:18:34;101840.98;;;6.29;100.00
60817;BME280;51921;51.518;-3.188;2023-05-12T04:20:59;101851.06;;;6.10;100.00
60817;BME280;51921;51.518;-3.188;2023-05-12T04:23:25;101855.35;;;5.88;100.00
60817;BME280;51921;51.518;-3.188;2023-05-12T04:25:50;101861.89;;;5.76;100.00
60817;BME280;51921;51.518;-3.188;2023-05-12T04:28:16;101858.05;;;5.50;100.00
60817;BME280;51921;51.518;-3.188;2023-05-12T04:30:42;101857.90;;;5.80;100.00
60817;BME280;51921;51.518;-3.188;2023-05-12T04:33:07;101858.43;;;5.75;100.00
60817;BME280;51921;51.518;-3.188;2023-05-12T04:35:33;101865.37;;;5.89;100.00
60817;BME280;51921;51.518;-3.188;2023-05-12T04:37:58;101876.64;;;5.81;100.00
60817;BME280;51921;51.518;-3.188;2023-05-12T04:40:24;101876.60;;;5.66;100.00
60817;BME280;51921;51.518;-3.188;2023-05-12T04:42:49;101869.87;;;6.07;100.00
60817;BME280;51921;51.518;-3.188;2023-05-12T04:45:15;101877.80;;;5.62;100.00
60817;BME280;51921;51.518;-3.188;2023-05-12T04:47:40;101877.44;;;5.85;100.00
60817;BME280;51921;51.518;-3.188;2023-05-12T04:50:07;101885.89;;;5.88;100.00
60817;BME280;51921;51.518;-3.188;2023-05-12T04:52:32;101888.29;;;5.54;100.00
60817;BME280;51921;51.518;-3.188;2023-05-12T04:54:58;101894.79;;;5.52;100.00
60817;BME280;51921;51.518;-3.188;2023-05-12T04:57:22;101900.83;;;5.74;100.00
60817;BME280;51921;51.518;-3.188;2023-05-12T04:59:48;101907.00;;;5.51;100.00
60817;BME280;51921;51.518;-3.188;2023-05-12T05:02:14;101910.23;;;5.80;100.00
60817;BME280;51921;51.518;-3.188;2023-05-12T05:04:39;101917.75;;;5.66;100.00
60817;BME280;51921;51.518;-3.188;2023-05-12T05:07:04;101924.92;;;5.59;100.00
60817;BME280;51921;51.518;-3.188;2023-05-12T05:09:29;101923.07;;;5.77;100.00
60817;BME280;51921;51.518;-3.188;2023-05-12T05:11:55;101921.40;;;5.62;100.00
60817;BME280;51921;51.518;-3.188;2023-05-12T05:14:21;101920.79;;;5.93;100.00
60817;BME280;51921;51.518;-3.188;2023-05-12T05:16:47;101923.25;;;6.14;100.00
60817;BME280;51921;51.518;-3.188;2023-05-12T05:19:12;101921.40;;;5.59;100.00
60817;BME280;51921;51.518;-3.188;2023-05-12T05:21:37;101927.39;;;5.81;100.00
60817;BME280;51921;51.518;-3.188;2023-05-12T05:24:03;101929.55;;;5.75;100.00
60817;BME280;51921;51.518;-3.188;2023-05-12T05:26:28;101930.09;;;5.79;100.00
60817;BME280;51921;51.518;-3.188;2023-05-12T05:28:53;101927.26;;;6.21;100.00
60817;BME280;51921;51.518;-3.188;2023-05-12T05:31:19;101930.72;;;6.12;100.00
60817;BME280;51921;51.518;-3.188;2023-05-12T05:33:44;101942.36;;;6.15;100.00
60817;BME280;51921;51.518;-3.188;2023-05-12T05:36:09;101943.68;;;6.10;100.00
60817;BME280;51921;51.518;-3.188;2023-05-12T05:38:35;101942.78;;;6.39;100.00
60817;BME280;51921;51.518;-3.188;2023-05-12T05:41:00;101946.92;;;6.04;100.00
60817;BME280;51921;51.518;-3.188;2023-05-12T05:43:25;101952.37;;;6.59;100.00
60817;BME280;51921;51.518;-3.188;2023-05-12T05:45:51;101949.24;;;5.98;100.00
60817;BME280;51921;51.518;-3.188;2023-05-12T05:48:17;101957.93;;;6.08;100.00
60817;BME280;51921;51.518;-3.188;2023-05-12T05:50:43;101963.88;;;6.23;100.00
60817;BME280;51921;51.518;-3.188;2023-05-12T05:53:08;101960.39;;;6.33;100.00
60817;BME280;51921;51.518;-3.188;2023-05-12T05:55:34;101961.63;;;6.80;100.00
60817;BME280;51921;51.518;-3.188;2023-05-12T05:57:59;101962.11;;;6.78;100.00
60817;BME280;51921;51.518;-3.188;2023-05-12T06:00:24;101969.88;;;6.97;100.00
60817;BME280;51921;51.518;-3.188;2023-05-12T06:02:50;101971.42;;;6.65;100.00
60817;BME280;51921;51.518;-3.188;2023-05-12T06:05:15;101968.60;;;7.06;100.00
60817;BME280;51921;51.518;-3.188;2023-05-12T06:07:40;101972.30;;;6.69;100.00
60817;BME280;51921;51.518;-3.188;2023-05-12T06:10:07;101984.14;;;6.73;100.00
60817;BME280;51921;51.518;-3.188;2023-05-12T06:12:31;101979.99;;;6.72;100.00
60817;BME280;51921;51.518;-3.188;2023-05-12T06:14:56;101977.68;;;6.95;100.00
60817;BME280;51921;51.518;-3.188;2023-05-12T06:17:22;101977.53;;;6.74;100.00
60817;BME280;51921;51.518;-3.188;2023-05-12T06:19:47;101984.66;;;6.51;100.00
60817;BME280;51921;51.518;-3.188;2023-05-12T06:22:12;101991.12;;;7.12;100.00
60817;BME280;51921;51.518;-3.188;2023-05-12T06:24:38;101998.59;;;6.65;100.00
60817;BME280;51921;51.518;-3.188;2023-05-12T06:27:03;102002.58;;;6.81;100.00
60817;BME280;51921;51.518;-3.188;2023-05-12T06:29:29;101998.05;;;7.10;100.00
60817;BME280;51921;51.518;-3.188;2023-05-12T06:31:54;102006.10;;;7.21;100.00
60817;BME280;51921;51.518;-3.188;2023-05-12T06:34:20;102016.41;;;7.35;100.00
60817;BME280;51921;51.518;-3.188;2023-05-12T06:36:45;102009.62;;;7.46;100.00
60817;BME280;51921;51.518;-3.188;2023-05-12T06:39:11;102018.01;;;7.77;100.00
60817;BME280;51921;51.518;-3.188;2023-05-12T06:41:36;102017.21;;;7.33;100.00
60817;BME280;51921;51.518;-3.188;2023-05-12T06:44:02;102031.03;;;7.33;100.00
60817;BME280;51921;51.518;-3.188;2023-05-12T06:46:27;102025.11;;;7.37;100.00
60817;BME280;51921;51.518;-3.188;2023-05-12T06:48:52;102026.91;;;7.83;100.00
60817;BME280;51921;51.518;-3.188;2023-05-12T06:51:18;102043.66;;;7.28;100.00
60817;BME280;51921;51.518;-3.188;2023-05-12T06:53:44;102046.30;;;7.35;100.00
60817;BME280;51921;51.518;-3.188;2023-05-12T06:56:09;102040.99;;;7.49;100.00
60817;BME280;51921;51.518;-3.188;2023-05-12T06:58:34;102048.22;;;7.06;100.00
60817;BME280;51921;51.518;-3.188;2023-05-12T07:00:59;102047.80;;;7.05;100.00
60817;BME280;51921;51.518;-3.188;2023-05-12T07:03:25;102053.12;;;7.03;100.00
60817;BME280;51921;51.518;-3.188;2023-05-12T07:05:50;102041.47;;;6.92;100.00
60817;BME280;51921;51.518;-3.188;2023-05-12T07:08:15;102040.08;;;7.70;100.00
60817;BME280;51921;51.518;-3.188;2023-05-12T07:10:41;102046.57;;;7.44;100.00
60817;BME280;51921;51.518;-3.188;2023-05-12T07:13:07;102054.51;;;7.41;100.00
60817;BME280;51921;51.518;-3.188;2023-05-12T07:15:32;102048.16;;;7.58;100.00
60817;BME280;51921;51.518;-3.188;2023-05-12T07:17:58;102050.28;;;7.94;100.00
60817;BME280;51921;51.518;-3.188;2023-05-12T07:20:23;102046.49;;;8.57;100.00
60817;BME280;51921;51.518;-3.188;2023-05-12T07:22:48;102041.02;;;8.81;100.00
60817;BME280;51921;51.518;-3.188;2023-05-12T07:25:14;102038.56;;;9.16;100.00
60817;BME280;51921;51.518;-3.188;2023-05-12T07:27:39;102042.37;;;8.63;100.00
60817;BME280;51921;51.518;-3.188;2023-05-12T07:30:06;102044.98;;;8.73;100.00
60817;BME280;51921;51.518;-3.188;2023-05-12T07:32:30;102038.44;;;8.76;100.00
60817;BME280;51921;51.518;-3.188;2023-05-12T07:34:56;102052.58;;;8.01;100.00
60817;BME280;51921;51.518;-3.188;2023-05-12T07:37:21;102039.92;;;8.33;100.00
60817;BME280;51921;51.518;-3.188;2023-05-12T07:39:47;102043.81;;;8.75;100.00
60817;BME280;51921;51.518;-3.188;2023-05-12T07:42:12;102049.71;;;8.27;100.00
60817;BME280;51921;51.518;-3.188;2023-05-12T07:44:37;102062.81;;;8.20;100.00
60817;BME280;51921;51.518;-3.188;2023-05-12T07:47:03;102061.56;;;8.62;100.00
60817;BME280;51921;51.518;-3.188;2023-05-12T07:49:28;102057.35;;;8.89;100.00
60817;BME280;51921;51.518;-3.188;2023-05-12T07:51:54;102057.14;;;8.59;100.00
60817;BME280;51921;51.518;-3.188;2023-05-12T07:54:20;102065.16;;;8.88;100.00
60817;BME280;51921;51.518;-3.188;2023-05-12T07:56:45;102060.55;;;8.33;100.00
60817;BME280;51921;51.518;-3.188;2023-05-12T07:59:11;102059.95;;;8.47;100.00
60817;BME280;51921;51.518;-3.188;2023-05-12T08:01:36;102056.67;;;9.03;100.00
60817;BME280;51921;51.518;-3.188;2023-05-12T08:04:01;102059.06;;;9.40;100.00
60817;BME280;51921;51.518;-3.188;2023-05-12T08:06:27;102063.20;;;8.38;100.00
60817;BME280;51921;51.518;-3.188;2023-05-12T08:08:53;102065.14;;;8.39;100.00
60817;BME280;51921;51.518;-3.188;2023-05-12T08:11:18;102075.72;;;9.21;100.00
60817;BME280;51921;51.518;-3.188;2023-05-12T08:13:43;102069.48;;;9.63;100.00
60817;BME280;51921;51.518;-3.188;2023-05-12T08:16:09;102073.39;;;10.26;100.00
60817;BME280;51921;51.518;-3.188;2023-05-12T08:18:34;102069.28;;;10.06;100.00
60817;BME280;51921;51.518;-3.188;2023-05-12T08:20:59;102067.48;;;9.64;100.00
60817;BME280;51921;51.518;-3.188;2023-05-12T08:23:25;102062.51;;;9.65;100.00
60817;BME280;51921;51.518;-3.188;2023-05-12T08:25:50;102066.02;;;9.97;100.00
60817;BME280;51921;51.518;-3.188;2023-05-12T08:28:16;102064.08;;;11.21;100.00
60817;BME280;51921;51.518;-3.188;2023-05-12T08:30:41;102067.55;;;11.12;100.00
60817;BME280;51921;51.518;-3.188;2023-05-12T08:33:06;102075.05;;;9.88;100.00
60817;BME280;51921;51.518;-3.188;2023-05-12T08:35:31;102074.59;;;9.34;100.00
60817;BME280;51921;51.518;-3.188;2023-05-12T08:37:57;102073.16;;;8.71;100.00
60817;BME280;51921;51.518;-3.188;2023-05-12T08:40:23;102072.44;;;9.35;100.00
60817;BME280;51921;51.518;-3.188;2023-05-12T08:42:54;102082.45;;;9.51;100.00
60817;BME280;51921;51.518;-3.188;2023-05-12T08:45:13;102081.04;;;9.91;100.00
60817;BME280;51921;51.518;-3.188;2023-05-12T08:47:40;102080.43;;;10.77;100.00
60817;BME280;51921;51.518;-3.188;2023-05-12T08:50:05;102086.93;;;9.23;100.00
60817;BME280;51921;51.518;-3.188;2023-05-12T08:52:31;102086.73;;;9.75;100.00
60817;BME280;51921;51.518;-3.188;2023-05-12T08:54:54;102084.13;;;9.21;100.00
60817;BME280;51921;51.518;-3.188;2023-05-12T08:57:20;102089.18;;;9.31;100.00
60817;BME280;51921;51.518;-3.188;2023-05-12T08:59:46;102091.90;;;10.27;100.00
60817;BME280;51921;51.518;-3.188;2023-05-12T09:02:11;102092.93;;;10.51;100.00
60817;BME280;51921;51.518;-3.188;2023-05-12T09:04:35;102102.45;;;9.82;100.00
60817;BME280;51921;51.518;-3.188;2023-05-12T09:07:02;102099.39;;;9.66;100.00
60817;BME280;51921;51.518;-3.188;2023-05-12T09:09:27;102096.78;;;9.11;100.00
60817;BME280;51921;51.518;-3.188;2023-05-12T09:11:55;102099.96;;;10.76;100.00
60817;BME280;51921;51.518;-3.188;2023-05-12T09:14:17;102100.73;;;10.86;100.00
60817;BME280;51921;51.518;-3.188;2023-05-12T09:16:44;102107.35;;;10.83;100.00
60817;BME280;51921;51.518;-3.188;2023-05-12T09:19:07;102114.96;;;8.92;100.00
60817;BME280;51921;51.518;-3.188;2023-05-12T09:21:33;102109.42;;;10.03;100.00
60817;BME280;51921;51.518;-3.188;2023-05-12T09:23:59;102105.28;;;9.73;100.00
60817;BME280;51921;51.518;-3.188;2023-05-12T09:26:24;102107.79;;;9.89;100.00
60817;BME280;51921;51.518;-3.188;2023-05-12T09:28:50;102105.21;;;9.57;100.00
60817;BME280;51921;51.518;-3.188;2023-05-12T09:31:16;102109.54;;;9.72;100.00
60817;BME280;51921;51.518;-3.188;2023-05-12T09:33:39;102109.90;;;9.86;100.00
60817;BME280;51921;51.518;-3.188;2023-05-12T09:36:05;102113.21;;;9.35;100.00
60817;BME280;51921;51.518;-3.188;2023-05-12T09:38:30;102105.26;;;9.63;100.00
60817;BME280;51921;51.518;-3.188;2023-05-12T09:40:56;102105.42;;;9.59;100.00
60817;BME280;51921;51.518;-3.188;2023-05-12T09:43:21;102108.53;;;9.88;100.00
60817;BME280;51921;51.518;-3.188;2023-05-12T09:45:46;102108.58;;;10.44;100.00
60817;BME280;51921;51.518;-3.188;2023-05-12T09:48:12;102105.52;;;10.62;100.00
60817;BME280;51921;51.518;-3.188;2023-05-12T09:50:44;102104.32;;;10.47;100.00
60817;BME280;51921;51.518;-3.188;2023-05-12T09:53:05;102105.07;;;9.82;100.00
60817;BME280;51921;51.518;-3.188;2023-05-12T09:55:28;102114.20;;;10.30;100.00
60817;BME280;51921;51.518;-3.188;2023-05-12T09:57:53;102110.01;;;9.97;100.00
60817;BME280;51921;51.518;-3.188;2023-05-12T10:00:19;102119.57;;;9.57;100.00
60817;BME280;51921;51.518;-3.188;2023-05-12T10:02:47;102120.82;;;9.50;100.00
60817;BME280;51921;51.518;-3.188;2023-05-12T10:05:13;102119.23;;;9.63;100.00
60817;BME280;51921;51.518;-3.188;2023-05-12T10:07:35;102120.84;;;10.05;100.00
60817;BME280;51921;51.518;-3.188;2023-05-12T10:10:02;102118.41;;;9.81;100.00
60817;BME280;51921;51.518;-3.188;2023-05-12T10:12:25;102118.46;;;9.99;100.00
60817;BME280;51921;51.518;-3.188;2023-05-12T10:14:50;102116.68;;;10.19;100.00
60817;BME280;51921;51.518;-3.188;2023-05-12T10:17:17;102114.42;;;9.88;100.00
60817;BME280;51921;51.518;-3.188;2023-05-12T10:19:42;102115.12;;;9.86;100.00
60817;BME280;51921;51.518;-3.188;2023-05-12T10:22:08;102122.32;;;10.01;100.00
60817;BME280;51921;51.518;-3.188;2023-05-12T10:24:32;102128.21;;;10.46;100.00
60817;BME280;51921;51.518;-3.188;2023-05-12T10:26:58;102128.35;;;9.90;100.00
60817;BME280;51921;51.518;-3.188;2023-05-12T10:29:23;102127.47;;;10.02;100.00
60817;BME280;51921;51.518;-3.188;2023-05-12T10:31:49;102123.69;;;10.59;100.00
60817;BME280;51921;51.518;-3.188;2023-05-12T10:34:16;102129.90;;;10.80;100.00
60817;BME280;51921;51.518;-3.188;2023-05-12T10:36:45;102132.95;;;10.55;100.00
60817;BME280;51921;51.518;-3.188;2023-05-12T10:39:05;102127.98;;;11.04;100.00
60817;BME280;51921;51.518;-3.188;2023-05-12T10:41:32;102130.03;;;11.35;100.00
60817;BME280;51921;51.518;-3.188;2023-05-12T10:43:56;102121.17;;;10.22;100.00
60817;BME280;51921;51.518;-3.188;2023-05-12T10:46:22;102129.97;;;10.81;100.00
60817;BME280;51921;51.518;-3.188;2023-05-12T10:48:51;102123.88;;;11.16;100.00
60817;BME280;51921;51.518;-3.188;2023-05-12T10:51:18;102127.52;;;10.70;100.00
60817;BME280;51921;51.518;-3.188;2023-05-12T10:53:38;102125.11;;;10.57;100.00
60817;BME280;51921;51.518;-3.188;2023-05-12T10:56:04;102115.23;;;11.05;100.00
60817;BME280;51921;51.518;-3.188;2023-05-12T10:58:29;102129.34;;;10.32;100.00
60817;BME280;51921;51.518;-3.188;2023-05-12T11:00:54;102125.68;;;10.91;100.00
60817;BME280;51921;51.518;-3.188;2023-05-12T11:03:23;102119.65;;;10.87;100.00
60817;BME280;51921;51.518;-3.188;2023-05-12T11:05:45;102131.71;;;10.85;100.00
60817;BME280;51921;51.518;-3.188;2023-05-12T11:08:10;102124.44;;;11.02;100.00
60817;BME280;51921;51.518;-3.188;2023-05-12T11:10:36;102129.45;;;11.09;100.00
60817;BME280;51921;51.518;-3.188;2023-05-12T11:13:01;102125.45;;;11.75;100.00
60817;BME280;51921;51.518;-3.188;2023-05-12T11:15:27;102129.76;;;11.40;100.00
60817;BME280;51921;51.518;-3.188;2023-05-12T11:17:52;102135.41;;;10.98;100.00
60817;BME280;51921;51.518;-3.188;2023-05-12T11:20:21;102133.49;;;11.17;100.00
60817;BME280;51921;51.518;-3.188;2023-05-12T11:22:42;102134.09;;;10.30;100.00
60817;BME280;51921;51.518;-3.188;2023-05-12T11:25:09;102122.88;;;11.21;100.00
60817;BME280;51921;51.518;-3.188;2023-05-12T11:27:33;102135.73;;;10.82;100.00
60817;BME280;51921;51.518;-3.188;2023-05-12T11:30:00;102136.78;;;10.90;100.00
60817;BME280;51921;51.518;-3.188;2023-05-12T11:32:23;102136.79;;;10.59;100.00
60817;BME280;51921;51.518;-3.188;2023-05-12T11:34:49;102146.12;;;10.46;100.00
60817;BME280;51921;51.518;-3.188;2023-05-12T11:37:14;102134.58;;;10.72;100.00
60817;BME280;51921;51.518;-3.188;2023-05-12T11:39:40;102132.32;;;10.65;100.00
60817;BME280;51921;51.518;-3.188;2023-05-12T11:42:06;102126.95;;;11.71;100.00
60817;BME280;51921;51.518;-3.188;2023-05-12T11:44:30;102120.60;;;11.46;100.00
60817;BME280;51921;51.518;-3.188;2023-05-12T11:46:57;102127.71;;;11.37;100.00
60817;BME280;51921;51.518;-3.188;2023-05-12T11:49:21;102123.00;;;11.46;100.00
60817;BME280;51921;51.518;-3.188;2023-05-12T11:51:47;102126.55;;;11.51;100.00
60817;BME280;51921;51.518;-3.188;2023-05-12T11:54:12;102121.60;;;11.31;100.00
60817;BME280;51921;51.518;-3.188;2023-05-12T11:56:37;102119.59;;;11.63;100.00
60817;BME280;51921;51.518;-3.188;2023-05-12T11:59:02;102120.60;;;11.97;100.00
60817;BME280;51921;51.518;-3.188;2023-05-12T12:01:28;102118.78;;;12.01;100.00
60817;BME280;51921;51.518;-3.188;2023-05-12T12:03:54;102125.08;;;12.10;100.00
60817;BME280;51921;51.518;-3.188;2023-05-12T12:06:19;102126.31;;;12.80;100.00
60817;BME280;51921;51.518;-3.188;2023-05-12T12:08:50;102128.97;;;12.34;100.00
60817;BME280;51921;51.518;-3.188;2023-05-12T12:11:09;102134.57;;;12.40;100.00
60817;BME280;51921;51.518;-3.188;2023-05-12T12:13:34;102133.46;;;11.38;100.00
60817;BME280;51921;51.518;-3.188;2023-05-12T12:15:59;102147.05;;;11.42;100.00
60817;BME280;51921;51.518;-3.188;2023-05-12T12:18:25;102140.77;;;11.19;100.00
60817;BME280;51921;51.518;-3.188;2023-05-12T12:20:50;102141.27;;;11.94;100.00
60817;BME280;51921;51.518;-3.188;2023-05-12T12:23:16;102140.81;;;10.85;100.00
60817;BME280;51921;51.518;-3.188;2023-05-12T12:25:41;102137.57;;;11.51;100.00
60817;BME280;51921;51.518;-3.188;2023-05-12T12:28:07;102134.78;;;11.88;100.00